Time;durP1;ratioP1;P1;durP2;ratioP2;P2;SDS_P1;SDS_P2;PMS_P1;PMS_P2;Temp;Humidity;BMP_temperature;BMP_pressure;BME280_temperature;BME280_humidity;BME280_pressure;Samples;Min_cycle;Max_cycle;Signal;HPM_P1;HPM_P2
2020/12/03 00:02:03;;;;;;;;;;;3.50;81.40;;;;;;4988633;28;22050;-45
2020/12/03 00:04:30;;;;;;;;;;;3.50;81.30;;;;;;4983211;28;19933;-45
2020/12/03 00:06:59;;;;;;;;;;;3.60;81.20;;;;;;4979849;28;19943;-45
2020/12/03 00:09:27;;;;;;;;;;;3.60;81.10;;;;;;4969733;28;20397;-44
2020/12/03 00:11:57;;;;;;;;;;;3.60;81.20;;;;;;4985494;28;19929;-44
2020/12/03 00:14:24;;;;;;;;;;;3.60;81.40;;;;;;4983986;28;20270;-43
2020/12/03 00:16:53;;;;;;;;;;;3.60;81.10;;;;;;4986355;28;19976;-44
2020/12/03 00:19:22;;;;;;;;;;;3.70;81.20;;;;;;4986474;28;19933;-43
2020/12/03 00:21:51;;;;;;;;;;;3.70;81.00;;;;;;4989114;28;20407;-44
2020/12/03 00:24:20;;;;;;;;;;;3.70;80.80;;;;;;4982981;28;20371;-44
2020/12/03 00:26:48;;;;;;;;;;;3.80;80.60;;;;;;4957736;28;19933;-43
2020/12/03 00:29:15;;;;;;;;;;;3.80;80.70;;;;;;4985579;28;19932;-44
2020/12/03 00:31:44;;;;;;;;;;;3.80;80.60;;;;;;4983852;28;20030;-44
2020/12/03 00:34:11;;;;;;;;;;;3.80;80.40;;;;;;4984822;28;19925;-45
2020/12/03 00:36:38;;;;;;;;;;;3.80;80.40;;;;;;4994593;28;19932;-45
2020/12/03 00:39:10;;;;;;;;;;;3.80;80.50;;;;;;4982191;28;20455;-43
2020/12/03 00:41:37;;;;;;;;;;;3.80;80.50;;;;;;4970761;28;19930;-45
2020/12/03 00:44:05;;;;;;;;;;;3.80;80.40;;;;;;4972814;28;20278;-44
2020/12/03 00:46:34;;;;;;;;;;;3.80;80.50;;;;;;4983258;28;19979;-44
2020/12/03 00:49:01;;;;;;;;;;;3.80;80.50;;;;;;4989977;28;19956;-44
2020/12/03 00:51:28;;;;;;;;;;;3.80;80.60;;;;;;4981456;28;19925;-45
2020/12/03 00:53:55;;;;;;;;;;;3.80;80.60;;;;;;4975244;28;19929;-44
2020/12/03 00:56:22;;;;;;;;;;;3.80;80.70;;;;;;4985724;28;19972;-44
2020/12/03 00:58:50;;;;;;;;;;;3.80;80.60;;;;;;4982681;28;19944;-44
2020/12/03 01:01:18;;;;;;;;;;;3.70;80.60;;;;;;4975571;28;20274;-43
2020/12/03 01:03:45;;;;;;;;;;;3.70;80.60;;;;;;4981624;28;19925;-45
2020/12/03 01:06:13;;;;;;;;;;;3.70;80.60;;;;;;4973414;28;19983;-44
2020/12/03 01:08:41;;;;;;;;;;;3.70;80.60;;;;;;4974427;28;19934;-43
2020/12/03 01:11:08;;;;;;;;;;;3.80;80.70;;;;;;4980932;28;19933;-43
2020/12/03 01:13:35;;;;;;;;;;;3.80;80.50;;;;;;4984025;28;19936;-45
2020/12/03 01:16:03;;;;;;;;;;;3.80;80.60;;;;;;4988728;28;19932;-44
2020/12/03 01:18:30;;;;;;;;;;;3.70;80.40;;;;;;4985467;28;19925;-44
2020/12/03 01:20:58;;;;;;;;;;;3.60;80.60;;;;;;4979160;28;19935;-43
2020/12/03 01:23:25;;;;;;;;;;;3.70;80.60;;;;;;4984580;28;19929;-44
2020/12/03 01:25:53;;;;;;;;;;;3.70;80.60;;;;;;4983750;28;20449;-43
2020/12/03 01:28:21;;;;;;;;;;;3.60;80.30;;;;;;4993131;28;20381;-44
2020/12/03 01:30:48;;;;;;;;;;;3.60;80.50;;;;;;4984744;28;19925;-44
2020/12/03 01:33:18;;;;;;;;;;;3.60;80.60;;;;;;4985087;28;25521;-43
2020/12/03 01:35:46;;;;;;;;;;;3.60;80.80;;;;;;4978405;28;20381;-44
2020/12/03 01:38:13;;;;;;;;;;;3.50;80.70;;;;;;4986773;28;20004;-43
2020/12/03 01:40:40;;;;;;;;;;;3.50;80.80;;;;;;4968865;28;20010;-44
2020/12/03 01:43:07;;;;;;;;;;;3.50;80.80;;;;;;4976189;28;20408;-44
2020/12/03 01:45:47;;;;;;;;;;;3.50;80.70;;;;;;4977015;28;19936;-43
2020/12/03 01:48:20;;;;;;;;;;;3.50;80.70;;;;;;4983043;28;20020;-43
2020/12/03 01:50:48;;;;;;;;;;;3.40;80.50;;;;;;4986957;28;19929;-44
2020/12/03 01:53:18;;;;;;;;;;;3.30;80.40;;;;;;4983827;28;19929;-43
2020/12/03 01:55:46;;;;;;;;;;;3.20;80.60;;;;;;4976399;28;19952;-44
2020/12/03 01:58:35;;;;;;;;;;;3.20;80.70;;;;;;4989025;28;20020;-44
2020/12/03 02:01:02;;;;;;;;;;;3.10;81.00;;;;;;4975591;28;19956;-44
2020/12/03 02:03:30;;;;;;;;;;;3.10;81.40;;;;;;4988198;28;19930;-44
2020/12/03 02:05:57;;;;;;;;;;;3.10;80.80;;;;;;4989499;28;19929;-44
2020/12/03 02:08:25;;;;;;;;;;;3.10;81.10;;;;;;4980832;28;19937;-45
2020/12/03 02:10:52;;;;;;;;;;;3.10;81.10;;;;;;4963739;28;19925;-44
2020/12/03 02:13:19;;;;;;;;;;;3.20;81.00;;;;;;4978388;28;19929;-44
2020/12/03 02:15:47;;;;;;;;;;;3.20;81.00;;;;;;4952384;28;19937;-44
2020/12/03 02:18:14;;;;;;;;;;;3.30;81.00;;;;;;4984342;28;19929;-44
2020/12/03 02:20:41;;;;;;;;;;;3.30;80.90;;;;;;4983109;28;19929;-44
2020/12/03 02:23:12;;;;;;;;;;;3.40;80.90;;;;;;4978922;28;20458;-44
2020/12/03 02:25:39;;;;;;;;;;;3.40;80.90;;;;;;4967302;28;20382;-44
2020/12/03 02:28:07;;;;;;;;;;;3.50;80.60;;;;;;4985613;28;19932;-44
2020/12/03 02:30:34;;;;;;;;;;;3.50;80.70;;;;;;4977077;28;20205;-44
2020/12/03 02:33:03;;;;;;;;;;;3.50;80.50;;;;;;4991282;28;20266;-44
2020/12/03 02:35:31;;;;;;;;;;;3.50;80.50;;;;;;4991391;28;19933;-45
2020/12/03 02:37:59;;;;;;;;;;;3.60;80.40;;;;;;4989360;28;19933;-44
2020/12/03 02:40:26;;;;;;;;;;;3.60;80.20;;;;;;4976301;28;20360;-43
2020/12/03 02:42:54;;;;;;;;;;;3.60;80.00;;;;;;4975639;28;20317;-43
2020/12/03 02:45:21;;;;;;;;;;;3.70;79.80;;;;;;4972963;28;19933;-45
2020/12/03 02:47:48;;;;;;;;;;;3.70;79.50;;;;;;4985472;28;20411;-43
2020/12/03 02:50:15;;;;;;;;;;;3.70;79.50;;;;;;4983620;28;21054;-45
2020/12/03 02:52:43;;;;;;;;;;;3.70;79.60;;;;;;4975226;28;20460;-44
2020/12/03 02:55:11;;;;;;;;;;;3.70;79.70;;;;;;4988958;28;20704;-45
2020/12/03 02:57:38;;;;;;;;;;;3.70;79.80;;;;;;4977474;28;19933;-43
2020/12/03 03:00:05;;;;;;;;;;;3.80;79.80;;;;;;4986081;28;20389;-44
2020/12/03 03:02:33;;;;;;;;;;;3.80;79.80;;;;;;4976849;28;19931;-44
2020/12/03 03:05:01;;;;;;;;;;;3.80;79.70;;;;;;4986025;28;20119;-44
2020/12/03 03:07:28;;;;;;;;;;;3.80;79.70;;;;;;4985144;28;19925;-45
2020/12/03 03:09:55;;;;;;;;;;;3.80;79.60;;;;;;4981224;28;20292;-44
2020/12/03 03:12:22;;;;;;;;;;;3.80;79.50;;;;;;4984124;28;19976;-44
2020/12/03 03:14:53;;;;;;;;;;;3.80;79.70;;;;;;4986761;28;19932;-44
2020/12/03 03:17:21;;;;;;;;;;;3.80;79.60;;;;;;4992837;28;19979;-43
2020/12/03 03:19:48;;;;;;;;;;;3.80;79.70;;;;;;4981317;28;19987;-44
2020/12/03 03:22:18;;;;;;;;;;;3.80;79.60;;;;;;4988850;28;20009;-44
2020/12/03 03:24:45;;;;;;;;;;;3.80;79.60;;;;;;4986996;28;19931;-45
2020/12/03 03:27:13;;;;;;;;;;;3.80;79.90;;;;;;4973128;28;20458;-43
2020/12/03 03:29:40;;;;;;;;;;;3.80;80.00;;;;;;4981048;28;20760;-44
2020/12/03 03:32:07;;;;;;;;;;;3.80;80.00;;;;;;4986496;28;20026;-44
2020/12/03 03:34:35;;;;;;;;;;;3.80;80.00;;;;;;4985237;28;20614;-45
2020/12/03 03:37:03;;;;;;;;;;;3.80;80.20;;;;;;4984529;28;19929;-44
2020/12/03 03:39:31;;;;;;;;;;;3.80;80.20;;;;;;4984734;28;19979;-45
2020/12/03 03:42:00;;;;;;;;;;;3.80;80.20;;;;;;4995930;28;19934;-44
2020/12/03 03:44:27;;;;;;;;;;;3.80;80.30;;;;;;4956809;28;19933;-44
2020/12/03 03:46:54;;;;;;;;;;;3.80;80.00;;;;;;4983613;28;20311;-44
2020/12/03 03:49:22;;;;;;;;;;;3.80;79.80;;;;;;4969300;28;20020;-44
2020/12/03 03:51:50;;;;;;;;;;;3.80;79.90;;;;;;4993614;28;19929;-44
2020/12/03 03:54:17;;;;;;;;;;;3.80;79.80;;;;;;4991055;28;19929;-45
2020/12/03 03:56:45;;;;;;;;;;;3.80;79.90;;;;;;4981093;28;20042;-44
2020/12/03 03:59:12;;;;;;;;;;;3.80;79.80;;;;;;4980529;28;20377;-43
2020/12/03 04:01:39;;;;;;;;;;;3.80;79.70;;;;;;4988437;28;19933;-44
2020/12/03 04:04:07;;;;;;;;;;;3.80;79.80;;;;;;4978916;28;19937;-45
2020/12/03 04:06:35;;;;;;;;;;;3.80;79.70;;;;;;4987538;28;20019;-44
2020/12/03 04:09:03;;;;;;;;;;;3.80;79.90;;;;;;4976311;28;19937;-43
2020/12/03 04:11:31;;;;;;;;;;;3.80;80.00;;;;;;4984019;28;19925;-45
2020/12/03 04:13:58;;;;;;;;;;;3.90;80.00;;;;;;4996854;28;20620;-44
2020/12/03 04:16:25;;;;;;;;;;;3.90;80.00;;;;;;4976271;28;19933;-44
2020/12/03 04:18:53;;;;;;;;;;;3.90;79.90;;;;;;4987037;28;20277;-43
2020/12/03 04:21:20;;;;;;;;;;;3.90;79.70;;;;;;4978422;28;19929;-44
2020/12/03 04:23:47;;;;;;;;;;;3.80;79.80;;;;;;4959983;28;19929;-43
2020/12/03 04:26:15;;;;;;;;;;;3.80;79.70;;;;;;4986369;28;19932;-45
2020/12/03 04:28:45;;;;;;;;;;;3.80;79.80;;;;;;4968892;28;19936;-45
2020/12/03 04:31:13;;;;;;;;;;;3.80;79.90;;;;;;4990326;28;19929;-45
2020/12/03 04:33:40;;;;;;;;;;;3.80;80.00;;;;;;4982397;28;19929;-45
2020/12/03 04:36:08;;;;;;;;;;;3.80;79.70;;;;;;4980201;28;19925;-45
2020/12/03 04:38:36;;;;;;;;;;;3.80;79.70;;;;;;4974620;28;19940;-44
2020/12/03 04:41:03;;;;;;;;;;;3.80;79.90;;;;;;4982685;28;20017;-45
2020/12/03 04:43:51;;;;;;;;;;;3.80;80.00;;;;;;4989912;28;19976;-45
2020/12/03 04:46:28;;;;;;;;;;;3.70;80.10;;;;;;4990549;28;19925;-43
2020/12/03 04:49:08;;;;;;;;;;;3.70;80.20;;;;;;4990312;28;19925;-45
2020/12/03 04:51:42;;;;;;;;;;;3.70;80.20;;;;;;4989681;28;19972;-45
2020/12/03 04:54:18;;;;;;;;;;;3.70;80.40;;;;;;4991195;28;20300;-44
2020/12/03 04:56:46;;;;;;;;;;;3.70;80.50;;;;;;4996367;28;19933;-45
2020/12/03 04:59:32;;;;;;;;;;;3.70;80.40;;;;;;4989961;28;19955;-45
2020/12/03 05:02:19;;;;;;;;;;;3.70;80.40;;;;;;4988716;28;20369;-45
2020/12/03 05:05:01;;;;;;;;;;;3.60;80.60;;;;;;4979617;28;19930;-45
2020/12/03 05:07:30;;;;;;;;;;;3.60;80.90;;;;;;4988444;28;19963;-44
2020/12/03 05:10:04;;;;;;;;;;;3.60;80.90;;;;;;4980611;28;19980;-44
2020/12/03 05:12:42;;;;;;;;;;;3.50;81.10;;;;;;4978568;28;20023;-44
2020/12/03 05:15:20;;;;;;;;;;;3.50;81.00;;;;;;4983815;28;19976;-43
2020/12/03 05:17:51;;;;;;;;;;;3.50;81.10;;;;;;4981687;28;20024;-45
2020/12/03 05:20:18;;;;;;;;;;;3.50;81.40;;;;;;4974797;28;20602;-44
2020/12/03 05:22:55;;;;;;;;;;;3.50;81.40;;;;;;4986887;28;20429;-44
2020/12/03 05:25:23;;;;;;;;;;;3.50;81.40;;;;;;4984243;28;21496;-44
2020/12/03 05:27:57;;;;;;;;;;;3.50;81.40;;;;;;4978910;28;19929;-45
2020/12/03 05:30:27;;;;;;;;;;;3.40;81.60;;;;;;4976377;28;19955;-44
2020/12/03 05:32:55;;;;;;;;;;;3.40;81.60;;;;;;4981714;28;20381;-44
2020/12/03 05:35:22;;;;;;;;;;;3.40;81.60;;;;;;4987620;28;19925;-45
2020/12/03 05:37:50;;;;;;;;;;;3.50;81.80;;;;;;4981553;28;20452;-43
2020/12/03 05:40:23;;;;;;;;;;;3.50;81.50;;;;;;4984966;28;19929;-42
2020/12/03 05:42:51;;;;;;;;;;;3.50;81.50;;;;;;4982679;28;20431;-45
2020/12/03 05:45:21;;;;;;;;;;;3.50;81.50;;;;;;4980161;28;20024;-45
2020/12/03 05:47:51;;;;;;;;;;;3.50;81.40;;;;;;4983188;28;20401;-44
2020/12/03 05:50:45;;;;;;;;;;;3.50;81.50;;;;;;4978873;28;20305;-44
2020/12/03 05:53:15;;;;;;;;;;;3.50;81.30;;;;;;4980973;28;19968;-45
2020/12/03 05:55:43;;;;;;;;;;;3.50;81.20;;;;;;4993989;28;19943;-44
2020/12/03 05:58:13;;;;;;;;;;;3.50;81.30;;;;;;4978296;28;19926;-42
2020/12/03 06:00:40;;;;;;;;;;;3.50;81.30;;;;;;4981867;28;19929;-44
2020/12/03 06:03:07;;;;;;;;;;;3.50;81.40;;;;;;4981447;28;19968;-44
2020/12/03 06:05:38;;;;;;;;;;;3.60;81.40;;;;;;4985338;28;19925;-44
2020/12/03 06:08:05;;;;;;;;;;;3.60;81.30;;;;;;4981621;28;19971;-44
2020/12/03 06:10:32;;;;;;;;;;;3.60;81.30;;;;;;4981068;28;19936;-43
2020/12/03 06:13:00;;;;;;;;;;;3.60;81.30;;;;;;4983731;28;19956;-44
2020/12/03 06:15:36;;;;;;;;;;;3.60;81.30;;;;;;4982151;28;19959;-44
2020/12/03 06:18:19;;;;;;;;;;;3.60;81.20;;;;;;4975545;28;19935;-44
2020/12/03 06:21:04;;;;;;;;;;;3.60;81.30;;;;;;4979552;28;19929;-43
2020/12/03 06:23:41;;;;;;;;;;;3.60;81.30;;;;;;4989316;28;19939;-43
2020/12/03 06:26:08;;;;;;;;;;;3.60;81.10;;;;;;4984347;28;19935;-45
2020/12/03 06:28:41;;;;;;;;;;;3.70;81.00;;;;;;4980488;28;20298;-44
2020/12/03 06:31:20;;;;;;;;;;;3.70;80.80;;;;;;4982493;28;22184;-44
2020/12/03 06:33:56;;;;;;;;;;;3.70;80.80;;;;;;4984131;28;20126;-44
2020/12/03 06:36:27;;;;;;;;;;;3.70;80.60;;;;;;4987250;28;19925;-44
2020/12/03 06:39:13;;;;;;;;;;;3.70;80.70;;;;;;4978684;28;19966;-43
2020/12/03 06:41:59;;;;;;;;;;;3.70;80.60;;;;;;4984816;28;19937;-44
2020/12/03 06:44:45;;;;;;;;;;;3.70;80.60;;;;;;4983679;28;19951;-44
2020/12/03 06:47:21;;;;;;;;;;;3.60;80.70;;;;;;4985094;28;19926;-45
2020/12/03 06:49:57;;;;;;;;;;;3.60;81.00;;;;;;4988383;28;19936;-44
2020/12/03 06:52:52;;;;;;;;;;;3.60;81.20;;;;;;4983765;28;19926;-44
2020/12/03 06:55:38;;;;;;;;;;;3.60;81.20;;;;;;4978079;28;19939;-43
2020/12/03 06:58:09;;;;;;;;;;;3.60;81.30;;;;;;4988448;28;20402;-43
2020/12/03 07:00:39;;;;;;;;;;;3.60;81.30;;;;;;4979536;28;20019;-45
2020/12/03 07:03:09;;;;;;;;;;;3.60;81.30;;;;;;4986826;28;19956;-45
2020/12/03 07:05:56;;;;;;;;;;;3.70;81.30;;;;;;4980148;28;19976;-45
2020/12/03 07:08:42;;;;;;;;;;;3.70;81.10;;;;;;4994794;28;19926;-44
2020/12/03 07:11:09;;;;;;;;;;;3.70;81.10;;;;;;4981852;28;20365;-45
2020/12/03 07:13:54;;;;;;;;;;;3.70;81.10;;;;;;4983929;28;19933;-45
2020/12/03 07:16:59;;;;;;;;;;;3.70;81.00;;;;;;4988348;28;19925;-45
2020/12/03 07:19:39;;;;;;;;;;;3.70;80.80;;;;;;4988049;28;19960;-44
2020/12/03 07:22:11;;;;;;;;;;;3.70;81.00;;;;;;4973894;28;19960;-44
2020/12/03 07:24:41;;;;;;;;;;;3.70;81.10;;;;;;4995038;28;20369;-43
2020/12/03 07:27:10;;;;;;;;;;;3.70;81.00;;;;;;4987022;28;20020;-44
2020/12/03 07:29:43;;;;;;;;;;;3.70;81.10;;;;;;4993771;28;20285;-44
2020/12/03 07:32:20;;;;;;;;;;;3.70;81.10;;;;;;4983727;28;20328;-44
2020/12/03 07:34:52;;;;;;;;;;;3.70;81.00;;;;;;4992591;28;20388;-44
2020/12/03 07:37:38;;;;;;;;;;;3.80;80.80;;;;;;4979119;28;19983;-44
2020/12/03 07:40:09;;;;;;;;;;;3.80;80.70;;;;;;4993290;28;20019;-45
2020/12/03 07:42:37;;;;;;;;;;;3.80;80.80;;;;;;4986476;28;19957;-44
2020/12/03 07:45:22;;;;;;;;;;;3.80;80.80;;;;;;4989102;28;20484;-44
2020/12/03 07:48:10;;;;;;;;;;;3.80;80.70;;;;;;4993518;28;19932;-44
2020/12/03 07:50:39;;;;;;;;;;;3.80;80.60;;;;;;4981514;28;20425;-45
2020/12/03 07:53:15;;;;;;;;;;;3.90;80.50;;;;;;4984538;28;22694;-44
2020/12/03 07:55:44;;;;;;;;;;;3.90;80.40;;;;;;4980597;28;19965;-43
2020/12/03 07:58:29;;;;;;;;;;;3.90;80.50;;;;;;4980834;28;20325;-44
2020/12/03 08:00:57;;;;;;;;;;;3.80;80.50;;;;;;4984513;28;19968;-43
2020/12/03 08:03:36;;;;;;;;;;;3.80;80.60;;;;;;4989758;28;20294;-44
2020/12/03 08:06:23;;;;;;;;;;;3.80;80.70;;;;;;4990523;28;20404;-44
2020/12/03 08:08:52;;;;;;;;;;;3.80;80.70;;;;;;4981293;28;19925;-44
2020/12/03 08:11:37;;;;;;;;;;;3.80;80.80;;;;;;4991205;28;20016;-44
2020/12/03 08:14:25;;;;;;;;;;;3.80;80.70;;;;;;4981991;28;19925;-43
2020/12/03 08:16:52;;;;;;;;;;;3.80;80.70;;;;;;4995144;28;19925;-43
2020/12/03 08:19:24;;;;;;;;;;;3.80;80.70;;;;;;4986049;28;20239;-43
2020/12/03 08:21:51;;;;;;;;;;;3.80;80.80;;;;;;4980204;28;20064;-44
2020/12/03 08:24:27;;;;;;;;;;;3.80;80.80;;;;;;4995159;28;19980;-44
2020/12/03 08:26:59;;;;;;;;;;;3.80;81.00;;;;;;4988256;28;20780;-44
2020/12/03 08:29:33;;;;;;;;;;;3.80;80.80;;;;;;4993559;28;21384;-44
2020/12/03 08:32:00;;;;;;;;;;;3.80;81.10;;;;;;4981390;28;19936;-44
2020/12/03 08:34:34;;;;;;;;;;;3.80;80.80;;;;;;4982903;28;21746;-44
2020/12/03 08:37:02;;;;;;;;;;;3.80;81.20;;;;;;4982944;28;20019;-43
2020/12/03 08:39:33;;;;;;;;;;;3.80;81.10;;;;;;4991747;28;19976;-43
2020/12/03 08:42:01;;;;;;;;;;;3.80;81.10;;;;;;4990032;28;20007;-44
2020/12/03 08:44:28;;;;;;;;;;;3.80;81.00;;;;;;4984166;28;19936;-44
2020/12/03 08:46:58;;;;;;;;;;;3.80;81.00;;;;;;4983462;28;19933;-43
2020/12/03 08:49:26;;;;;;;;;;;3.80;81.20;;;;;;4989035;28;20055;-44
2020/12/03 08:51:57;;;;;;;;;;;3.80;81.30;;;;;;4990653;28;19936;-44
2020/12/03 08:54:32;;;;;;;;;;;3.90;81.30;;;;;;4974487;28;21452;-44
2020/12/03 08:57:20;;;;;;;;;;;3.90;81.30;;;;;;5000251;28;19925;-43
2020/12/03 08:59:50;;;;;;;;;;;3.90;81.10;;;;;;4988845;28;19971;-43
2020/12/03 09:02:18;;;;;;;;;;;3.90;80.70;;;;;;4993361;28;20284;-43
2020/12/03 09:04:54;;;;;;;;;;;3.90;80.80;;;;;;4992669;28;20439;-43
2020/12/03 09:07:24;;;;;;;;;;;3.90;80.70;;;;;;4997006;28;20267;-43
2020/12/03 09:09:51;;;;;;;;;;;3.90;80.80;;;;;;4996711;28;19929;-44
2020/12/03 09:12:24;;;;;;;;;;;4.00;80.90;;;;;;4999550;28;19925;-43
2020/12/03 09:14:54;;;;;;;;;;;3.90;80.80;;;;;;4974928;28;19929;-44
2020/12/03 09:17:22;;;;;;;;;;;3.90;80.70;;;;;;4984397;28;19933;-43
2020/12/03 09:19:52;;;;;;;;;;;3.90;80.80;;;;;;4984206;28;19925;-43
2020/12/03 09:22:21;;;;;;;;;;;3.90;80.60;;;;;;4990896;28;19978;-44
2020/12/03 09:24:49;;;;;;;;;;;4.00;80.40;;;;;;4984276;28;19929;-42
2020/12/03 09:27:16;;;;;;;;;;;4.00;80.60;;;;;;4993421;28;19925;-43
2020/12/03 09:29:50;;;;;;;;;;;4.00;80.80;;;;;;4996629;28;20328;-44
2020/12/03 09:32:19;;;;;;;;;;;4.00;80.50;;;;;;4992318;28;20372;-44
2020/12/03 09:34:50;;;;;;;;;;;4.00;80.50;;;;;;4989298;28;20292;-44
2020/12/03 09:37:17;;;;;;;;;;;4.00;80.50;;;;;;4977609;28;19933;-44
2020/12/03 09:39:48;;;;;;;;;;;4.00;80.40;;;;;;4985111;28;19925;-44
2020/12/03 09:42:15;;;;;;;;;;;4.00;80.40;;;;;;4989317;28;20019;-43
2020/12/03 09:44:46;;;;;;;;;;;4.00;80.70;;;;;;4985641;28;19934;-43
2020/12/03 09:47:14;;;;;;;;;;;4.00;80.60;;;;;;4989674;28;19925;-44
2020/12/03 09:49:46;;;;;;;;;;;4.00;80.60;;;;;;4990026;28;19956;-43
2020/12/03 09:52:14;;;;;;;;;;;4.00;80.90;;;;;;4989223;28;20012;-44
2020/12/03 09:54:43;;;;;;;;;;;4.00;80.70;;;;;;4985638;28;19930;-42
2020/12/03 09:57:11;;;;;;;;;;;4.10;80.70;;;;;;4991826;28;19926;-44
2020/12/03 09:59:39;;;;;;;;;;;4.10;80.80;;;;;;4981414;28;19929;-44
2020/12/03 10:02:15;;;;;;;;;;;4.10;80.80;;;;;;4995126;28;19929;-43
2020/12/03 10:04:47;;;;;;;;;;;4.20;80.60;;;;;;4986529;28;19997;-44
2020/12/03 10:07:23;;;;;;;;;;;4.20;80.30;;;;;;4989740;28;20429;-44
2020/12/03 10:10:10;;;;;;;;;;;4.20;80.10;;;;;;4995302;28;20354;-43
2020/12/03 10:12:48;;;;;;;;;;;4.20;80.00;;;;;;4989236;28;20301;-44
2020/12/03 10:15:16;;;;;;;;;;;4.30;79.90;;;;;;4987435;28;19937;-44
2020/12/03 10:17:52;;;;;;;;;;;4.30;79.90;;;;;;4983706;28;19933;-43
2020/12/03 10:20:20;;;;;;;;;;;4.30;79.80;;;;;;4991178;28;19940;-43
2020/12/03 10:22:54;;;;;;;;;;;4.40;79.80;;;;;;4987376;28;19925;-44
2020/12/03 10:25:23;;;;;;;;;;;4.40;79.60;;;;;;4979505;28;20452;-43
2020/12/03 10:27:59;;;;;;;;;;;4.40;79.50;;;;;;4980014;28;20459;-43
2020/12/03 10:30:36;;;;;;;;;;;4.40;79.50;;;;;;4985274;28;19929;-44
2020/12/03 10:33:07;;;;;;;;;;;4.50;79.60;;;;;;4978768;28;20644;-43
2020/12/03 10:35:39;;;;;;;;;;;4.50;79.50;;;;;;4984673;28;19930;-43
2020/12/03 10:38:10;;;;;;;;;;;4.50;79.50;;;;;;4986816;28;20190;-43
2020/12/03 10:40:38;;;;;;;;;;;4.50;79.40;;;;;;4989157;28;20372;-43
2020/12/03 10:43:13;;;;;;;;;;;4.60;79.20;;;;;;4994988;28;20019;-44
2020/12/03 10:45:43;;;;;;;;;;;4.60;79.20;;;;;;4992357;28;19936;-43
2020/12/03 10:48:27;;;;;;;;;;;4.60;79.00;;;;;;4995949;28;19925;-43
2020/12/03 10:50:58;;;;;;;;;;;4.60;79.10;;;;;;4991212;28;20370;-44
2020/12/03 10:53:27;;;;;;;;;;;4.60;78.90;;;;;;4986176;28;19929;-44
2020/12/03 10:56:06;;;;;;;;;;;4.60;79.00;;;;;;4980703;28;19941;-44
2020/12/03 10:58:38;;;;;;;;;;;4.70;79.00;;;;;;4987132;28;19929;-44
2020/12/03 11:01:06;;;;;;;;;;;4.70;79.10;;;;;;4991744;28;19955;-44
2020/12/03 11:03:36;;;;;;;;;;;4.60;79.10;;;;;;4992526;28;19929;-44
2020/12/03 11:06:03;;;;;;;;;;;4.70;79.00;;;;;;4985104;28;19971;-44
2020/12/03 11:08:35;;;;;;;;;;;4.60;79.00;;;;;;4991025;28;19973;-43
2020/12/03 11:11:03;;;;;;;;;;;4.60;79.00;;;;;;4986646;28;19929;-44
2020/12/03 11:13:31;;;;;;;;;;;4.60;79.00;;;;;;4982142;28;20424;-44
2020/12/03 11:16:00;;;;;;;;;;;4.70;79.00;;;;;;4995109;28;19937;-43
2020/12/03 11:18:27;;;;;;;;;;;4.70;79.00;;;;;;4991966;28;20439;-44
2020/12/03 11:21:01;;;;;;;;;;;4.60;79.00;;;;;;4990742;28;20401;-43
2020/12/03 11:23:28;;;;;;;;;;;4.70;79.10;;;;;;4989936;28;20015;-44
2020/12/03 11:26:03;;;;;;;;;;;4.60;79.10;;;;;;4996695;28;20014;-44
2020/12/03 11:28:34;;;;;;;;;;;4.60;79.20;;;;;;4998047;28;20344;-43
2020/12/03 11:31:02;;;;;;;;;;;4.60;79.30;;;;;;4989535;28;20360;-43
2020/12/03 11:33:33;;;;;;;;;;;4.70;79.40;;;;;;4995934;28;19936;-44
2020/12/03 11:36:05;;;;;;;;;;;4.70;79.40;;;;;;4995231;28;19929;-44
2020/12/03 11:38:32;;;;;;;;;;;4.70;79.60;;;;;;4989370;28;20420;-44
2020/12/03 11:41:05;;;;;;;;;;;4.70;79.60;;;;;;4972866;28;19930;-44
2020/12/03 11:48:57;;;;;;;;;;;4.80;79.20;;;;;;4945935;28;19936;-44
2020/12/03 11:51:26;;;;;;;;;;;4.90;79.40;;;;;;4993636;28;19933;-44
2020/12/03 11:53:57;;;;;;;;;;;4.90;79.20;;;;;;4995022;28;19940;-43
2020/12/03 11:56:24;;;;;;;;;;;4.90;78.90;;;;;;4980632;28;20015;-44
2020/12/03 11:58:52;;;;;;;;;;;5.00;79.00;;;;;;4989830;28;19930;-44
2020/12/03 12:01:19;;;;;;;;;;;5.00;78.90;;;;;;4984670;28;19987;-43
2020/12/03 12:03:48;;;;;;;;;;;5.00;78.70;;;;;;4975522;28;20415;-44
2020/12/03 12:06:44;;;;;;;;;;;5.10;78.40;;;;;;4981005;28;20354;-44
2020/12/03 12:09:18;;;;;;;;;;;5.10;78.30;;;;;;4992307;28;19931;-43
2020/12/03 12:11:46;;;;;;;;;;;5.10;78.30;;;;;;4989036;28;19933;-44
2020/12/03 12:14:16;;;;;;;;;;;5.20;78.30;;;;;;4981422;28;20614;-43
2020/12/03 12:16:43;;;;;;;;;;;5.20;78.30;;;;;;4990473;28;19939;-43
2020/12/03 12:19:11;;;;;;;;;;;5.20;78.30;;;;;;4965580;28;20392;-44
2020/12/03 12:21:42;;;;;;;;;;;5.20;78.40;;;;;;4972298;28;20451;-44
2020/12/03 12:24:09;;;;;;;;;;;5.30;78.00;;;;;;4983082;28;19987;-44
2020/12/03 12:26:36;;;;;;;;;;;5.30;77.30;;;;;;4970672;28;19937;-44
2020/12/03 12:29:03;;;;;;;;;;;5.30;77.40;;;;;;4990283;28;19929;-44
2020/12/03 12:31:31;;;;;;;;;;;5.40;77.10;;;;;;4984228;28;19936;-43
2020/12/03 12:33:58;;;;;;;;;;;5.40;77.20;;;;;;4988802;28;20024;-44
2020/12/03 12:36:25;;;;;;;;;;;5.40;77.20;;;;;;4994424;28;20331;-44
2020/12/03 12:38:53;;;;;;;;;;;5.40;77.20;;;;;;4995270;28;19925;-44
2020/12/03 12:41:20;;;;;;;;;;;5.40;77.10;;;;;;4982882;28;19961;-44
2020/12/03 12:43:47;;;;;;;;;;;5.40;76.90;;;;;;4983754;28;19936;-43
2020/12/03 12:46:22;;;;;;;;;;;5.40;76.80;;;;;;4970430;28;19934;-43
2020/12/03 12:48:49;;;;;;;;;;;5.40;76.80;;;;;;4959609;28;19929;-44
2020/12/03 12:51:16;;;;;;;;;;;5.40;76.50;;;;;;4988953;28;20407;-44
2020/12/03 12:53:44;;;;;;;;;;;5.40;76.30;;;;;;4985710;28;19932;-44
2020/12/03 12:56:14;;;;;;;;;;;5.40;76.60;;;;;;4964692;28;19932;-44
2020/12/03 12:58:41;;;;;;;;;;;5.40;76.20;;;;;;4989038;28;20082;-43
2020/12/03 13:01:10;;;;;;;;;;;5.40;76.30;;;;;;4991645;28;19929;-44
2020/12/03 13:03:37;;;;;;;;;;;5.50;76.50;;;;;;4985090;28;19936;-44
2020/12/03 13:06:05;;;;;;;;;;;5.50;76.40;;;;;;4980085;28;19936;-44
2020/12/03 13:08:32;;;;;;;;;;;5.50;76.60;;;;;;4977574;28;20423;-43
2020/12/03 13:11:00;;;;;;;;;;;5.60;76.40;;;;;;4988034;28;20020;-44
2020/12/03 13:13:28;;;;;;;;;;;5.60;76.20;;;;;;4982173;28;20373;-44
2020/12/03 13:15:56;;;;;;;;;;;5.60;75.90;;;;;;4983171;28;19933;-44
2020/12/03 13:18:24;;;;;;;;;;;5.60;75.80;;;;;;4984994;28;19933;-44
2020/12/03 13:20:52;;;;;;;;;;;5.60;75.60;;;;;;4972722;28;19960;-44
2020/12/03 13:23:19;;;;;;;;;;;5.60;75.60;;;;;;4982779;28;20296;-43
2020/12/03 13:25:47;;;;;;;;;;;5.60;75.80;;;;;;4974519;28;20275;-44
2020/12/03 13:28:14;;;;;;;;;;;5.70;76.00;;;;;;4983422;28;20377;-44
2020/12/03 13:30:41;;;;;;;;;;;5.70;75.80;;;;;;4973550;28;19929;-43
2020/12/03 13:33:09;;;;;;;;;;;5.70;75.80;;;;;;4989681;28;19941;-44
2020/12/03 13:35:36;;;;;;;;;;;5.70;75.80;;;;;;4979181;28;20374;-44
2020/12/03 13:38:04;;;;;;;;;;;5.70;75.90;;;;;;4981076;28;19932;-43
2020/12/03 13:40:31;;;;;;;;;;;5.70;75.90;;;;;;4989641;28;19933;-44
2020/12/03 13:42:58;;;;;;;;;;;5.80;76.10;;;;;;4983260;28;20451;-44
2020/12/03 13:45:25;;;;;;;;;;;5.80;76.20;;;;;;4981605;28;20002;-42
2020/12/03 13:47:52;;;;;;;;;;;5.80;75.50;;;;;;4975027;28;19929;-44
2020/12/03 13:50:20;;;;;;;;;;;5.80;75.80;;;;;;4979665;28;20328;-44
2020/12/03 13:52:48;;;;;;;;;;;5.80;76.00;;;;;;4978651;28;19989;-45
2020/12/03 13:55:16;;;;;;;;;;;5.80;76.00;;;;;;4987613;28;19926;-43
2020/12/03 13:57:43;;;;;;;;;;;5.80;76.00;;;;;;4988627;28;19936;-42
2020/12/03 14:00:11;;;;;;;;;;;5.80;75.80;;;;;;4985871;28;19925;-43
2020/12/03 14:02:38;;;;;;;;;;;5.70;75.80;;;;;;4995230;28;19933;-44
2020/12/03 14:05:06;;;;;;;;;;;5.70;75.90;;;;;;4995748;28;19929;-44
2020/12/03 14:07:49;;;;;;;;;;;5.60;76.10;;;;;;4989833;28;20016;-43
2020/12/03 14:10:16;;;;;;;;;;;5.60;76.50;;;;;;4987431;28;19947;-44
2020/12/03 14:12:44;;;;;;;;;;;5.60;76.60;;;;;;4987790;28;19929;-43
2020/12/03 14:15:11;;;;;;;;;;;5.50;76.80;;;;;;4988532;28;19955;-44
2020/12/03 14:17:39;;;;;;;;;;;5.50;76.70;;;;;;4995352;28;19926;-44
2020/12/03 14:20:06;;;;;;;;;;;5.50;76.80;;;;;;4992243;28;19930;-43
2020/12/03 14:22:33;;;;;;;;;;;5.50;77.00;;;;;;4990053;28;19933;-44
2020/12/03 14:25:00;;;;;;;;;;;5.50;77.00;;;;;;4988422;28;19936;-43
2020/12/03 14:27:28;;;;;;;;;;;5.50;76.80;;;;;;4972742;28;19936;-44
2020/12/03 14:29:55;;;;;;;;;;;5.50;77.00;;;;;;4968929;28;20398;-43
2020/12/03 14:32:22;;;;;;;;;;;5.50;77.10;;;;;;4982703;28;19937;-44
2020/12/03 14:34:49;;;;;;;;;;;5.50;77.20;;;;;;4992872;28;19933;-44
2020/12/03 14:37:18;;;;;;;;;;;5.50;77.20;;;;;;4984914;28;19936;-44
2020/12/03 14:39:44;;;;;;;;;;;5.50;77.10;;;;;;4993893;28;19987;-45
2020/12/03 14:42:11;;;;;;;;;;;5.40;77.20;;;;;;4992793;28;19960;-43
2020/12/03 14:44:39;;;;;;;;;;;5.50;77.30;;;;;;4978460;28;19933;-43
2020/12/03 14:47:07;;;;;;;;;;;5.40;77.20;;;;;;4987389;28;19929;-42
2020/12/03 14:49:39;;;;;;;;;;;5.50;77.30;;;;;;4988817;28;19932;-43
2020/12/03 14:52:09;;;;;;;;;;;5.50;77.20;;;;;;4990838;28;19968;-43
2020/12/03 14:54:37;;;;;;;;;;;5.50;77.10;;;;;;4987021;28;19932;-44
2020/12/03 14:57:05;;;;;;;;;;;5.40;77.10;;;;;;4965594;28;20023;-44